createdAt,value
2019-01-03T10:45:55.325Z,95.46
2019-01-03T10:46:55.582Z,95.67
2019-01-03T10:47:55.897Z,95.61
2019-01-03T10:48:54.929Z,95.50
2019-01-03T10:51:15.482Z,96.29
2019-01-03T10:52:15.436Z,96.29
2019-01-03T10:53:15.389Z,96.39
2019-01-03T10:54:15.426Z,96.19
2019-01-03T10:55:15.373Z,96.50
2019-01-03T10:56:15.352Z,96.70
2019-01-03T11:00:17.762Z,96.60
2019-01-03T11:01:17.794Z,96.19
2019-01-03T11:02:17.728Z,96.76
2019-01-03T11:03:17.594Z,96.66
2019-01-03T11:04:20.463Z,96.70
2019-01-03T11:05:17.553Z,96.03
2019-01-03T11:06:17.614Z,95.41
2019-01-03T11:28:14.228Z,94.27
2019-01-03T11:29:14.072Z,94.68
2019-01-03T11:30:13.990Z,94.58
2019-01-03T11:31:14.191Z,94.48
2019-01-03T11:32:13.977Z,94.89
2019-01-03T11:33:13.791Z,94.79
2019-01-03T11:34:13.859Z,94.48
2019-01-03T11:39:03.453Z,93.81
2019-01-03T11:41:19.962Z,94.12
2019-01-03T11:43:31.719Z,94.43
2019-01-03T11:44:31.257Z,94.33
2019-01-03T11:49:13.878Z,93.44
2019-01-03T11:50:12.786Z,94.37
2019-01-03T12:24:54.285Z,94.54
2019-01-03T12:25:54.087Z,94.43
2019-01-03T12:35:58.779Z,94.23
2019-01-03T12:59:20.113Z,92.93
2019-01-03T13:00:19.347Z,93.23
2019-01-03T13:01:19.139Z,93.33
2019-01-03T13:02:19.117Z,93.75
2019-01-03T13:03:20.903Z,93.44
2019-01-03T13:04:19.102Z,93.75
2019-01-03T13:05:21.968Z,93.96
2019-01-03T13:13:50.097Z,94.02
2019-01-03T13:14:49.787Z,94.54
2019-01-03T13:15:50.199Z,94.64
2019-01-03T13:50:01.346Z,93.77
2019-01-03T14:36:07.555Z,92.26
2019-01-03T14:37:07.503Z,92.47
2019-01-03T14:38:07.630Z,92.88
2019-01-03T14:39:07.324Z,92.93
2019-01-03T14:40:07.335Z,93.29
2019-01-03T14:41:07.407Z,92.93
2019-01-03T14:47:52.594Z,94.27
2019-01-03T14:48:52.117Z,93.96
2019-01-03T14:49:52.098Z,93.75
2019-01-03T14:50:52.140Z,93.85
2019-01-03T14:51:51.990Z,94.06
2019-01-03T14:52:51.976Z,93.85
2019-01-03T14:53:51.937Z,94.17
2019-01-03T14:54:51.951Z,93.96
2019-01-03T14:55:51.864Z,93.96
2019-01-03T14:56:51.862Z,93.85
2019-01-03T14:57:51.851Z,94.06
2019-01-03T14:58:51.949Z,94.06
2019-01-03T14:59:51.915Z,93.96
2019-01-03T15:00:51.837Z,93.85
2019-01-03T15:01:51.799Z,94.79
2019-01-03T15:02:51.845Z,94.48
2019-01-03T15:03:51.774Z,94.06
2019-01-03T15:04:51.795Z,94.68
2019-01-03T15:05:51.808Z,94.37
2019-01-03T15:06:51.779Z,94.27
2019-01-03T15:07:51.743Z,94.27
2019-01-03T15:08:51.844Z,94.32
2019-01-03T15:09:51.853Z,94.73
2019-01-03T15:10:51.740Z,94.27
2019-01-03T15:11:51.723Z,95.51
2019-01-03T15:12:51.696Z,95.31
2019-01-03T15:14:44.702Z,95.83
2019-01-03T15:15:44.461Z,95.36
2019-01-03T15:16:44.351Z,95.77
2019-01-03T15:19:01.623Z,95.56
2019-01-03T15:20:01.218Z,95.56
2019-01-03T15:21:01.228Z,95.46
2019-01-03T15:22:01.052Z,95.67
2019-01-03T15:23:01.097Z,95.98
2019-01-03T15:24:02.282Z,95.67
2019-01-03T15:25:01.066Z,95.56
2019-01-03T15:26:01.070Z,95.46
2019-01-03T15:27:01.045Z,95.67
2019-01-03T15:28:01.033Z,95.56
2019-01-03T15:29:00.984Z,95.56
2019-01-03T15:30:01.005Z,95.56
2019-01-03T15:31:01.054Z,95.46
2019-01-03T15:32:00.977Z,95.25
2019-01-03T15:33:01.035Z,95.36
2019-01-03T15:34:00.962Z,95.67
2019-01-03T15:35:00.973Z,96.29
2019-01-03T15:36:00.950Z,96.19
2019-01-03T15:37:00.938Z,96.29
2019-01-03T15:38:00.903Z,96.75
2019-01-03T15:39:00.946Z,96.29
2019-01-03T15:40:00.874Z,96.19
2019-01-03T15:41:00.940Z,96.39
2019-01-03T15:42:00.954Z,96.39
2019-01-03T15:43:00.938Z,96.64
2019-01-03T15:44:00.866Z,96.02
2019-01-03T15:49:09.598Z,95.46
2019-01-03T15:50:09.583Z,95.40
2019-01-03T15:51:09.448Z,95.61
2019-01-03T15:52:09.357Z,95.40
2019-01-03T15:53:09.316Z,95.40
2019-01-03T15:54:09.286Z,95.50
2019-01-03T15:55:09.256Z,95.40
2019-01-03T15:56:09.250Z,95.61
2019-01-03T15:57:10.291Z,95.50
2019-01-03T15:58:09.219Z,95.50
2019-01-03T15:59:09.799Z,95.61
2019-01-03T16:00:09.162Z,95.61
2019-01-03T16:01:09.197Z,95.61
2019-01-03T16:02:09.119Z,95.54
2019-01-03T16:03:09.156Z,95.65
2019-01-03T16:04:09.263Z,95.75
2019-01-03T16:05:09.179Z,95.75
2019-01-03T16:06:09.319Z,95.75
2019-01-03T16:07:10.119Z,95.86
2019-01-03T16:08:10.698Z,95.65
2019-01-03T16:09:09.281Z,95.54
2019-01-03T16:10:09.148Z,95.81
2019-01-03T16:11:09.223Z,95.75
2019-01-03T16:14:08.513Z,95.75
2019-01-03T17:06:33.471Z,96.58
2019-01-03T21:17:46.180Z,99.99
2019-01-03T21:18:46.374Z,99.99
2019-01-03T21:19:47.199Z,99.99
2019-01-03T21:20:46.036Z,99.99
2019-01-03T21:27:07.411Z,99.99
2019-01-03T21:28:07.245Z,99.99
2019-01-03T21:29:07.231Z,99.99
2019-01-03T21:30:07.180Z,99.99
2019-01-03T21:31:07.143Z,99.99
2019-01-03T21:32:07.156Z,99.99
2019-01-03T21:33:07.170Z,99.99
2019-01-03T21:34:07.356Z,99.99
2019-01-03T21:35:06.957Z,99.99
2019-01-03T21:36:07.008Z,99.99
2019-01-03T21:37:07.038Z,99.99
2019-01-03T21:38:07.019Z,99.99
2019-01-03T21:39:06.977Z,99.99
2019-01-03T21:40:06.935Z,99.99
2019-01-03T21:41:06.923Z,99.99
2019-01-03T21:42:06.951Z,99.99
2019-01-03T21:43:06.982Z,99.99
2019-01-03T22:24:47.841Z,99.16
2019-01-03T22:25:46.840Z,99.16
2019-01-03T22:29:25.599Z,98.99
2019-01-03T22:30:25.408Z,98.79
2019-01-03T22:31:25.325Z,99.31
2019-01-03T22:32:25.374Z,98.74
2019-01-03T22:33:25.240Z,98.79
2019-01-03T22:34:25.336Z,99.31
2019-01-03T22:35:25.326Z,99.20
2019-01-03T22:36:25.242Z,98.99
2019-01-03T22:37:25.206Z,98.99
2019-01-03T22:38:25.208Z,98.99
2019-01-03T22:39:25.147Z,99.31
2019-01-03T22:40:25.228Z,99.52
2019-01-03T22:41:25.169Z,99.83
2019-01-03T22:42:25.155Z,99.99
2019-01-03T22:43:25.119Z,99.99
2019-01-03T22:44:25.172Z,99.99
2019-01-03T22:45:25.098Z,99.99
2019-01-03T22:46:25.112Z,99.99
2019-01-03T22:47:25.114Z,99.99
2019-01-03T22:48:25.087Z,99.99
2019-01-03T22:49:25.107Z,99.99
2019-01-03T22:50:25.039Z,99.99
2019-01-03T22:51:25.020Z,99.99
2019-01-03T22:52:25.082Z,99.99
2019-01-03T22:53:25.008Z,99.99
2019-01-03T22:54:25.009Z,99.99
2019-01-03T22:55:25.035Z,99.99
2019-01-03T22:56:24.970Z,99.99
2019-01-03T22:57:25.025Z,99.99
2019-01-03T22:58:24.979Z,99.99
2019-01-03T22:59:25.007Z,99.99
2019-01-03T23:00:24.928Z,99.99
2019-01-03T23:01:25.127Z,99.99
2019-01-03T23:02:24.917Z,99.99
2019-01-03T23:03:24.973Z,99.99
2019-01-03T23:04:24.881Z,99.99
2019-01-03T23:05:24.926Z,99.99
2019-01-03T23:06:24.872Z,99.99
2019-01-03T23:07:24.929Z,99.99
2019-01-03T23:08:24.870Z,99.99
2019-01-03T23:09:24.838Z,99.99
2019-01-03T23:10:24.875Z,99.99
2019-01-03T23:11:24.851Z,99.99
2019-01-03T23:12:24.837Z,99.99
2019-01-03T23:13:24.829Z,99.99
2019-01-03T23:14:24.809Z,99.99
2019-01-03T23:15:24.780Z,99.99
2019-01-03T23:16:24.787Z,99.99
2019-01-03T23:17:24.746Z,99.99
2019-01-03T23:18:31.364Z,99.99
2019-01-03T23:19:25.814Z,99.99
2019-01-03T23:20:24.715Z,99.99
2019-01-03T23:21:24.707Z,99.99
2019-01-03T23:22:24.743Z,99.99
2019-01-03T23:23:24.708Z,99.99
2019-01-03T23:24:24.671Z,99.99
2019-01-03T23:25:24.716Z,99.99
2019-01-03T23:26:24.679Z,99.99
2019-01-03T23:27:24.648Z,99.99
2019-01-03T23:28:24.710Z,99.99
2019-01-03T23:29:24.659Z,99.99
2019-01-03T23:30:24.613Z,99.99
2019-01-03T23:31:24.634Z,99.99
2019-01-03T23:32:24.584Z,99.99
2019-01-03T23:33:24.688Z,99.99
2019-01-03T23:34:28.123Z,99.99
2019-01-03T23:35:24.577Z,99.99
2019-01-03T23:36:24.545Z,99.99
2019-01-03T23:37:24.615Z,99.99
2019-01-03T23:38:24.519Z,99.99
2019-01-03T23:39:24.564Z,99.99
2019-01-03T23:40:24.555Z,99.99
2019-01-03T23:41:24.510Z,99.99
2019-01-03T23:42:24.491Z,99.99
2019-01-03T23:43:24.531Z,99.99
2019-01-03T23:44:24.530Z,99.99
2019-01-03T23:45:24.460Z,99.99
2019-01-03T23:46:24.445Z,99.99
2019-01-03T23:47:24.428Z,99.99
2019-01-03T23:48:24.460Z,99.99
2019-01-03T23:49:24.443Z,99.99
2019-01-03T23:50:24.401Z,99.99
2019-01-03T23:51:24.390Z,99.99
2019-01-03T23:52:24.381Z,99.99
2019-01-03T23:53:24.370Z,99.99
2019-01-03T23:54:24.359Z,99.99
2019-01-03T23:55:24.363Z,99.99
2019-01-03T23:56:24.333Z,99.99
2019-01-03T23:57:24.326Z,99.99
2019-01-03T23:58:24.354Z,99.99
2019-01-03T23:59:24.320Z,99.99
